Time;durP1;ratioP1;P1;durP2;ratioP2;P2;SDS_P1;SDS_P2;PMS_P1;PMS_P2;Temp;Humidity;BMP_temperature;BMP_pressure;BME280_temperature;BME280_humidity;BME280_pressure;Samples;Min_cycle;Max_cycle;Signal;HPM_P1;HPM_P2
2023/08/21 00:00:14;;;;;;;4.45;3.47;;;;;;;;;;5025873;28;20222;-84
2023/08/21 00:03:13;;;;;;;3.70;3.30;;;;;;;;;;4953364;28;20328;-83
2023/08/21 00:05:38;;;;;;;3.47;3.05;;;;;;;;;;4955295;28;20257;-83
2023/08/21 00:08:51;;;;;;;3.38;3.08;;;;;;;;;;4928420;28;20217;-83
2023/08/21 00:11:22;;;;;;;5.07;3.55;;;;;;;;;;4922028;29;20242;-84
2023/08/21 00:13:54;;;;;;;3.58;3.28;;;;;;;;;;4907387;29;20231;-83
2023/08/21 00:16:44;;;;;;;3.40;2.90;;;;;;;;;;4908411;29;20227;-83
2023/08/21 00:19:12;;;;;;;3.20;2.90;;;;;;;;;;4906411;29;20806;-83
2023/08/21 00:21:43;;;;;;;3.35;3.05;;;;;;;;;;4934968;29;20693;-83
2023/08/21 00:24:21;;;;;;;3.00;2.55;;;;;;;;;;4900823;29;20227;-83
2023/08/21 00:27:02;;;;;;;3.20;2.90;;;;;;;;;;4934110;29;20321;-83
2023/08/21 00:29:59;;;;;;;3.35;3.05;;;;;;;;;;4892682;29;20223;-83
2023/08/21 00:32:25;;;;;;;2.83;2.63;;;;;;;;;;4905216;29;20287;-83
2023/08/21 00:34:50;;;;;;;2.95;2.65;;;;;;;;;;4920439;28;20282;-83
2023/08/21 00:37:54;;;;;;;2.85;2.65;;;;;;;;;;4966921;28;20216;-83
2023/08/21 00:40:33;;;;;;;3.17;2.88;;;;;;;;;;4978229;28;20220;-83
2023/08/21 00:43:41;;;;;;;5.07;3.03;;;;;;;;;;4960650;28;20228;-83
2023/08/21 00:46:07;;;;;;;4.15;3.05;;;;;;;;;;4987930;28;20240;-83
2023/08/21 00:48:35;;;;;;;2.75;2.55;;;;;;;;;;4957579;28;20640;-83
2023/08/21 00:51:01;;;;;;;2.60;2.40;;;;;;;;;;4965568;28;20224;-83
2023/08/21 00:54:07;;;;;;;5.57;3.05;;;;;;;;;;4975103;28;20224;-84
2023/08/21 00:57:18;;;;;;;2.78;2.33;;;;;;;;;;5021202;28;20231;-84
2023/08/21 00:59:43;;;;;;;4.25;2.42;;;;;;;;;;5040741;28;20279;-84
2023/08/21 01:02:27;;;;;;;4.32;2.95;;;;;;;;;;5032316;28;20256;-83
2023/08/21 01:05:19;;;;;;;3.03;2.80;;;;;;;;;;5032817;28;20206;-83
2023/08/21 01:08:05;;;;;;;3.17;2.80;;;;;;;;;;5036122;28;20223;-83
2023/08/21 01:10:54;;;;;;;3.33;3.03;;;;;;;;;;5013742;28;20688;-83
2023/08/21 01:20:11;;;;;;;4.05;3.00;;;;;;;;;;4949507;28;20278;-82
2023/08/21 01:22:50;;;;;;;4.53;3.25;;;;;;;;;;4981194;28;20231;-83
2023/08/21 01:25:47;;;;;;;3.00;2.60;;;;;;;;;;4983131;28;20236;-83
2023/08/21 01:28:43;;;;;;;2.90;2.70;;;;;;;;;;4963676;28;20220;-83
2023/08/21 01:31:55;;;;;;;3.50;3.20;;;;;;;;;;4980597;28;20429;-83
2023/08/21 01:34:50;;;;;;;2.80;2.60;;;;;;;;;;4975472;28;20233;-83
2023/08/21 01:44:55;;;;;;;3.65;2.63;;;;;;;;;;5045761;28;20215;-81
2023/08/21 01:47:45;;;;;;;5.45;2.63;;;;;;;;;;5027759;28;20231;-82
2023/08/21 01:50:38;;;;;;;2.85;2.65;;;;;;;;;;5052052;28;20233;-82
2023/08/21 01:53:18;;;;;;;3.53;2.80;;;;;;;;;;5042297;28;20226;-81
2023/08/21 01:55:50;;;;;;;3.17;2.90;;;;;;;;;;5045778;28;20294;-81
2023/08/21 01:58:18;;;;;;;3.67;2.97;;;;;;;;;;5016110;28;20222;-81
2023/08/21 02:00:47;;;;;;;3.45;3.15;;;;;;;;;;5031874;28;20640;-81
2023/08/21 02:03:37;;;;;;;5.05;3.03;;;;;;;;;;5014172;28;20230;-82
2023/08/21 02:06:23;;;;;;;4.78;3.28;;;;;;;;;;5025018;28;20227;-82
2023/08/21 02:08:49;;;;;;;3.42;3.10;;;;;;;;;;5050350;28;20258;-82
2023/08/21 02:11:25;;;;;;;3.05;2.75;;;;;;;;;;5028991;28;20214;-81
2023/08/21 02:13:54;;;;;;;4.28;3.45;;;;;;;;;;5020884;28;20226;-81
2023/08/21 02:16:21;;;;;;;3.78;3.17;;;;;;;;;;5020189;28;20219;-82
2023/08/21 02:18:47;;;;;;;3.25;2.95;;;;;;;;;;5019488;28;20223;-81
2023/08/21 02:21:22;;;;;;;3.85;3.20;;;;;;;;;;5032774;28;20240;-83
2023/08/21 02:24:40;;;;;;;4.38;3.00;;;;;;;;;;5034137;28;20226;-82
2023/08/21 02:27:49;;;;;;;2.92;2.72;;;;;;;;;;5047543;28;20227;-81
2023/08/21 02:30:33;;;;;;;5.93;2.83;;;;;;;;;;5050361;28;20711;-81
2023/08/21 02:33:04;;;;;;;2.90;2.70;;;;;;;;;;5044368;28;20241;-81
2023/08/21 02:35:39;;;;;;;3.80;2.38;;;;;;;;;;5034621;28;20278;-81
2023/08/21 02:38:07;;;;;;;4.32;2.78;;;;;;;;;;5016713;28;20222;-81
2023/08/21 02:40:35;;;;;;;2.72;2.42;;;;;;;;;;5014723;28;20851;-80
2023/08/21 02:43:06;;;;;;;3.00;2.72;;;;;;;;;;5035922;28;20263;-81
2023/08/21 02:45:47;;;;;;;4.45;2.55;;;;;;;;;;5052549;28;20225;-81
2023/08/21 02:49:25;;;;;;;3.72;2.80;;;;;;;;;;5032572;28;20229;-82
2023/08/21 02:51:51;;;;;;;5.13;2.28;;;;;;;;;;5038020;28;20218;-82
2023/08/21 02:54:16;;;;;;;3.78;2.40;;;;;;;;;;5010071;28;20226;-82
2023/08/21 02:56:48;;;;;;;2.50;2.30;;;;;;;;;;5019237;28;20563;-81
2023/08/21 03:03:23;;;;;;;4.97;2.60;;;;;;;;;;5009452;23;20226;-75
2023/08/21 03:05:51;;;;;;;4.72;2.92;;;;;;;;;;5031599;28;20231;-76
2023/08/21 03:11:16;;;;;;;4.53;2.75;;;;;;;;;;5019243;28;20231;-80
2023/08/21 03:13:47;;;;;;;4.55;2.83;;;;;;;;;;4997027;28;20288;-81
2023/08/21 03:20:01;;;;;;;3.03;2.13;;;;;;;;;;5034021;28;20356;-81
2023/08/21 03:22:34;;;;;;;2.13;1.95;;;;;;;;;;5002548;28;20231;-82
2023/08/21 03:25:02;;;;;;;2.13;2.00;;;;;;;;;;4987146;28;20228;-82
2023/08/21 03:27:30;;;;;;;2.63;2.20;;;;;;;;;;4993270;28;20303;-81
2023/08/21 03:30:00;;;;;;;3.65;2.42;;;;;;;;;;4996083;28;20235;-81
2023/08/21 03:32:29;;;;;;;4.63;2.30;;;;;;;;;;5009054;28;20236;-81
2023/08/21 03:34:54;;;;;;;4.82;2.67;;;;;;;;;;4978918;28;20224;-81
2023/08/21 03:37:20;;;;;;;2.70;2.45;;;;;;;;;;4993217;28;20220;-81
2023/08/21 03:39:48;;;;;;;2.50;2.30;;;;;;;;;;5010391;28;20311;-80
2023/08/21 03:42:18;;;;;;;2.33;2.20;;;;;;;;;;4982225;28;20842;-81
2023/08/21 03:44:49;;;;;;;2.50;2.30;;;;;;;;;;5010068;28;20217;-81
2023/08/21 03:47:20;;;;;;;3.47;2.70;;;;;;;;;;5001866;28;20267;-82
2023/08/21 03:49:58;;;;;;;3.47;2.60;;;;;;;;;;4974196;28;20226;-80
2023/08/21 03:52:28;;;;;;;3.67;2.33;;;;;;;;;;4970306;28;20239;-81
2023/08/21 03:54:56;;;;;;;3.00;2.40;;;;;;;;;;4980096;28;20299;-81
2023/08/21 03:57:21;;;;;;;2.63;1.98;;;;;;;;;;4983108;28;20285;-80
2023/08/21 04:04:15;;;;;;;2.55;2.35;;;;;;;;;;5037669;28;20254;-81
2023/08/21 04:06:43;;;;;;;4.00;3.05;;;;;;;;;;5005078;28;20996;-80
2023/08/21 04:09:11;;;;;;;4.20;2.88;;;;;;;;;;5018004;28;20231;-81
2023/08/21 04:11:41;;;;;;;5.40;2.90;;;;;;;;;;4992163;28;20228;-79
2023/08/21 04:14:14;;;;;;;3.40;3.10;;;;;;;;;;5002553;28;20224;-80
2023/08/21 04:16:42;;;;;;;3.95;3.08;;;;;;;;;;5006376;28;20228;-79
2023/08/21 04:19:10;;;;;;;4.72;2.95;;;;;;;;;;4986605;28;20279;-80
2023/08/21 04:21:38;;;;;;;4.75;3.00;;;;;;;;;;5009944;28;20235;-83
2023/08/21 04:24:11;;;;;;;2.58;2.33;;;;;;;;;;4991618;28;20227;-81
2023/08/21 04:26:39;;;;;;;3.67;2.80;;;;;;;;;;4997380;28;20291;-81
2023/08/21 04:29:05;;;;;;;4.10;2.60;;;;;;;;;;4976019;28;20700;-81
2023/08/21 04:31:30;;;;;;;3.80;3.10;;;;;;;;;;5000936;28;20216;-81
2023/08/21 04:33:56;;;;;;;3.45;2.80;;;;;;;;;;4991347;28;20240;-81
2023/08/21 04:36:21;;;;;;;4.72;3.03;;;;;;;;;;4971064;28;20212;-81
2023/08/21 04:38:49;;;;;;;3.17;2.65;;;;;;;;;;4998151;28;20217;-80
2023/08/21 04:41:15;;;;;;;4.80;3.28;;;;;;;;;;4999659;28;20228;-83
2023/08/21 04:43:43;;;;;;;5.93;3.20;;;;;;;;;;4999855;28;20235;-79
2023/08/21 04:46:10;;;;;;;4.93;3.13;;;;;;;;;;4971470;28;20274;-82
2023/08/21 04:48:38;;;;;;;4.28;3.50;;;;;;;;;;4969774;28;20217;-82
2023/08/21 04:51:06;;;;;;;5.38;3.35;;;;;;;;;;4992763;28;20220;-81
2023/08/21 04:53:34;;;;;;;5.30;3.78;;;;;;;;;;4992080;28;20225;-81
2023/08/21 04:56:01;;;;;;;5.47;4.13;;;;;;;;;;4974003;28;20469;-82
2023/08/21 04:58:27;;;;;;;5.80;3.78;;;;;;;;;;4966769;28;20220;-82
2023/08/21 05:00:53;;;;;;;3.90;3.10;;;;;;;;;;4998983;28;20252;-82
2023/08/21 05:03:20;;;;;;;6.13;3.70;;;;;;;;;;4997682;28;20229;-82
2023/08/21 05:05:56;;;;;;;3.67;3.38;;;;;;;;;;4998207;28;20220;-82
2023/08/21 05:08:23;;;;;;;5.32;3.50;;;;;;;;;;5011981;28;20287;-82
2023/08/21 05:10:54;;;;;;;2.75;2.55;;;;;;;;;;5025757;28;20217;-81
2023/08/21 05:13:22;;;;;;;4.22;3.05;;;;;;;;;;4983208;28;20232;-81
2023/08/21 05:15:57;;;;;;;4.20;2.95;;;;;;;;;;4968003;28;20219;-81
2023/08/21 05:18:24;;;;;;;3.90;2.90;;;;;;;;;;4963073;28;20225;-81
2023/08/21 05:20:50;;;;;;;3.20;2.90;;;;;;;;;;4981753;28;20217;-81
2023/08/21 05:23:17;;;;;;;5.80;2.65;;;;;;;;;;4995398;28;20217;-81
2023/08/21 05:25:53;;;;;;;5.68;3.15;;;;;;;;;;4957283;28;20605;-82
2023/08/21 05:28:19;;;;;;;3.80;3.35;;;;;;;;;;4957309;28;20255;-82
2023/08/21 05:30:47;;;;;;;5.13;3.28;;;;;;;;;;4959807;28;20603;-81
2023/08/21 05:33:13;;;;;;;3.75;3.35;;;;;;;;;;4990420;28;20229;-81
2023/08/21 05:35:42;;;;;;;7.68;3.80;;;;;;;;;;4979758;28;20332;-80
2023/08/21 05:38:10;;;;;;;5.93;4.32;;;;;;;;;;5014140;28;20697;-82
2023/08/21 05:40:41;;;;;;;9.02;4.60;;;;;;;;;;5012481;28;20457;-82
2023/08/21 05:43:11;;;;;;;4.30;3.45;;;;;;;;;;5000332;28;20217;-81
2023/08/21 05:45:43;;;;;;;4.82;3.45;;;;;;;;;;4996481;28;20270;-80
2023/08/21 05:48:11;;;;;;;3.88;3.38;;;;;;;;;;4972489;28;20224;-81
2023/08/21 05:50:39;;;;;;;5.70;4.72;;;;;;;;;;4970259;28;20218;-81
2023/08/21 05:53:07;;;;;;;6.35;4.50;;;;;;;;;;5005482;28;20220;-83
2023/08/21 05:55:33;;;;;;;7.38;5.38;;;;;;;;;;5011402;28;20221;-82
2023/08/21 05:58:00;;;;;;;7.60;4.95;;;;;;;;;;4979511;28;20220;-81
2023/08/21 06:00:28;;;;;;;6.88;5.00;;;;;;;;;;4996142;28;20326;-81
2023/08/21 06:02:56;;;;;;;5.70;4.60;;;;;;;;;;5010783;28;20589;-83
2023/08/21 06:05:46;;;;;;;6.18;4.82;;;;;;;;;;4998179;28;20224;-81
2023/08/21 06:08:18;;;;;;;9.23;4.88;;;;;;;;;;5002494;28;20752;-82
2023/08/21 06:10:44;;;;;;;7.10;4.20;;;;;;;;;;4996537;28;20236;-80
2023/08/21 06:13:11;;;;;;;4.90;4.40;;;;;;;;;;4993585;28;20293;-81
2023/08/21 06:15:37;;;;;;;8.05;5.20;;;;;;;;;;4966072;28;20222;-82
2023/08/21 06:18:07;;;;;;;6.10;4.88;;;;;;;;;;4989559;28;20278;-81
2023/08/21 06:20:35;;;;;;;5.95;4.22;;;;;;;;;;5009678;28;20220;-82
2023/08/21 06:23:01;;;;;;;7.68;4.10;;;;;;;;;;4992475;28;20264;-83
2023/08/21 06:25:32;;;;;;;6.65;4.57;;;;;;;;;;4964304;28;20225;-80
2023/08/21 06:28:02;;;;;;;7.53;5.00;;;;;;;;;;4972251;28;20229;-80
2023/08/21 06:30:37;;;;;;;7.25;3.88;;;;;;;;;;4987098;28;20221;-81
2023/08/21 06:33:05;;;;;;;6.80;4.53;;;;;;;;;;4986434;28;20228;-82
2023/08/21 06:35:37;;;;;;;7.25;4.30;;;;;;;;;;4981592;28;20237;-80
2023/08/21 06:38:05;;;;;;;11.35;4.22;;;;;;;;;;5010436;28;20236;-80
2023/08/21 06:40:35;;;;;;;7.30;4.10;;;;;;;;;;5006881;28;20224;-82
2023/08/21 06:43:01;;;;;;;8.30;4.25;;;;;;;;;;4984239;28;20225;-81
2023/08/21 06:45:33;;;;;;;7.55;3.85;;;;;;;;;;4977164;28;20229;-83
2023/08/21 06:48:01;;;;;;;6.10;3.92;;;;;;;;;;4969447;28;20674;-83
2023/08/21 06:50:26;;;;;;;8.73;4.03;;;;;;;;;;4986600;28;20212;-83
2023/08/21 06:52:57;;;;;;;7.40;3.30;;;;;;;;;;4986644;28;20216;-82
2023/08/21 06:55:25;;;;;;;6.22;3.47;;;;;;;;;;4985211;28;20221;-83
2023/08/21 06:57:53;;;;;;;6.03;3.25;;;;;;;;;;4998263;28;20224;-84
2023/08/21 07:00:18;;;;;;;6.05;2.85;;;;;;;;;;5001191;28;20308;-82
2023/08/21 07:02:44;;;;;;;7.22;3.15;;;;;;;;;;4997323;28;20332;-84
2023/08/21 07:05:09;;;;;;;6.03;2.58;;;;;;;;;;4983499;28;20231;-81
2023/08/21 07:07:35;;;;;;;6.00;2.78;;;;;;;;;;4986798;28;20225;-80
2023/08/21 07:10:01;;;;;;;4.68;2.65;;;;;;;;;;4992180;28;20217;-83
2023/08/21 07:12:29;;;;;;;8.18;2.47;;;;;;;;;;4981719;28;20302;-83
2023/08/21 07:14:57;;;;;;;6.13;2.22;;;;;;;;;;4985919;28;20216;-82
2023/08/21 07:17:26;;;;;;;3.65;2.10;;;;;;;;;;4976618;28;20232;-81
2023/08/21 07:19:54;;;;;;;4.22;2.35;;;;;;;;;;4979718;28;20275;-81
2023/08/21 07:22:23;;;;;;;5.97;2.60;;;;;;;;;;4977560;28;20319;-82
2023/08/21 07:24:48;;;;;;;5.32;2.60;;;;;;;;;;4991347;28;20259;-81
2023/08/21 07:27:17;;;;;;;9.38;3.08;;;;;;;;;;5002247;28;20229;-79
2023/08/21 07:29:43;;;;;;;5.53;2.05;;;;;;;;;;4978850;28;20295;-83
2023/08/21 07:32:10;;;;;;;4.03;2.20;;;;;;;;;;4995662;28;20243;-83
2023/08/21 07:34:36;;;;;;;7.25;2.47;;;;;;;;;;4964843;28;20229;-83
2023/08/21 07:37:04;;;;;;;6.93;2.10;;;;;;;;;;4987491;28;20247;-83
2023/08/21 07:39:32;;;;;;;6.28;1.90;;;;;;;;;;4963719;28;20259;-86
2023/08/21 07:41:57;;;;;;;7.07;2.20;;;;;;;;;;4996256;28;20236;-84
2023/08/21 07:44:28;;;;;;;8.75;2.20;;;;;;;;;;4983156;28;20235;-83
2023/08/21 07:46:56;;;;;;;9.73;2.70;;;;;;;;;;4977621;28;20235;-83
2023/08/21 07:49:22;;;;;;;12.77;2.72;;;;;;;;;;5008364;28;20221;-81
2023/08/21 07:51:48;;;;;;;7.53;2.10;;;;;;;;;;4981491;28;20229;-85
2023/08/21 07:54:13;;;;;;;9.77;2.00;;;;;;;;;;4980422;28;20247;-83
2023/08/21 07:56:42;;;;;;;11.20;2.42;;;;;;;;;;4991156;28;20216;-83
2023/08/21 07:59:10;;;;;;;9.23;2.65;;;;;;;;;;4990379;28;20224;-82
2023/08/21 08:01:40;;;;;;;7.20;2.17;;;;;;;;;;4984745;28;20239;-83
2023/08/21 08:04:06;;;;;;;6.80;2.55;;;;;;;;;;4980092;28;20634;-83
2023/08/21 08:06:31;;;;;;;6.07;2.20;;;;;;;;;;4978056;28;20275;-82
2023/08/21 08:09:00;;;;;;;7.60;1.90;;;;;;;;;;4995325;28;20220;-82
2023/08/21 08:11:26;;;;;;;4.93;1.80;;;;;;;;;;4983584;28;20224;-83
2023/08/21 08:13:51;;;;;;;7.85;2.30;;;;;;;;;;5005710;28;20220;-83
2023/08/21 08:16:21;;;;;;;3.85;1.63;;;;;;;;;;4983444;28;20217;-82
2023/08/21 08:18:49;;;;;;;4.32;1.70;;;;;;;;;;4987863;28;20238;-83
2023/08/21 08:21:15;;;;;;;5.15;1.73;;;;;;;;;;5025398;28;20243;-83
2023/08/21 08:23:40;;;;;;;3.22;1.42;;;;;;;;;;4974540;28;20249;-84
2023/08/21 08:26:08;;;;;;;3.88;1.50;;;;;;;;;;4975423;28;20228;-82
2023/08/21 08:28:34;;;;;;;6.03;1.70;;;;;;;;;;5020485;28;20303;-83
2023/08/21 08:31:00;;;;;;;5.35;1.75;;;;;;;;;;5010490;28;20220;-81
2023/08/21 08:33:30;;;;;;;4.43;1.38;;;;;;;;;;5013648;28;20220;-83
2023/08/21 08:35:58;;;;;;;3.90;1.40;;;;;;;;;;4998556;28;20244;-81
2023/08/21 08:38:26;;;;;;;3.63;1.38;;;;;;;;;;5011792;28;20212;-82
2023/08/21 08:40:58;;;;;;;3.95;1.50;;;;;;;;;;5005679;28;20227;-83
2023/08/21 08:43:24;;;;;;;5.43;1.52;;;;;;;;;;5004813;28;20228;-82
2023/08/21 08:45:55;;;;;;;3.28;1.48;;;;;;;;;;4985491;28;20223;-84
2023/08/21 08:48:24;;;;;;;2.60;1.30;;;;;;;;;;5036169;28;20230;-82
2023/08/21 08:50:50;;;;;;;2.55;1.27;;;;;;;;;;5013185;28;20224;-84
2023/08/21 08:53:16;;;;;;;3.47;1.50;;;;;;;;;;5022928;28;20704;-84
2023/08/21 08:55:44;;;;;;;3.72;1.50;;;;;;;;;;5007845;28;20216;-83
2023/08/21 08:58:14;;;;;;;2.75;1.65;;;;;;;;;;4985895;28;20216;-82
2023/08/21 09:00:39;;;;;;;6.53;1.38;;;;;;;;;;5008005;28;20224;-83
2023/08/21 09:03:08;;;;;;;2.63;1.27;;;;;;;;;;4990679;28;20241;-84
2023/08/21 09:05:34;;;;;;;6.57;1.58;;;;;;;;;;4973635;28;20437;-83
2023/08/21 09:08:06;;;;;;;3.33;1.63;;;;;;;;;;5017335;28;20514;-81
2023/08/21 09:10:34;;;;;;;3.83;1.25;;;;;;;;;;4997946;28;20222;-83
2023/08/21 09:13:01;;;;;;;4.18;1.27;;;;;;;;;;5020822;28;20231;-83
2023/08/21 09:15:29;;;;;;;3.28;1.20;;;;;;;;;;4968051;28;20217;-84
2023/08/21 09:17:55;;;;;;;7.50;1.00;;;;;;;;;;5020142;28;20628;-82
2023/08/21 09:20:20;;;;;;;1.55;1.05;;;;;;;;;;4998566;28;20212;-82
2023/08/21 09:22:57;;;;;;;2.92;1.30;;;;;;;;;;4993428;28;20226;-82
2023/08/21 09:25:24;;;;;;;1.80;1.05;;;;;;;;;;5018191;28;20227;-85
2023/08/21 09:27:51;;;;;;;3.40;1.35;;;;;;;;;;5003066;28;20224;-86
2023/08/21 09:30:19;;;;;;;2.97;1.10;;;;;;;;;;5010400;28;20242;-84
2023/08/21 09:32:55;;;;;;;4.15;1.30;;;;;;;;;;5023838;28;20681;-84
2023/08/21 09:35:21;;;;;;;1.88;0.85;;;;;;;;;;5016682;28;20219;-86
2023/08/21 09:37:47;;;;;;;6.35;1.30;;;;;;;;;;4985119;28;20327;-82
2023/08/21 09:40:13;;;;;;;2.42;1.20;;;;;;;;;;4985393;28;20256;-84
2023/08/21 09:42:43;;;;;;;5.18;1.20;;;;;;;;;;4962497;28;20228;-86
2023/08/21 09:45:09;;;;;;;1.75;1.02;;;;;;;;;;4976612;28;20221;-84
2023/08/21 09:47:34;;;;;;;5.65;1.20;;;;;;;;;;4964132;28;20223;-84
2023/08/21 09:50:02;;;;;;;3.38;1.33;;;;;;;;;;4974016;28;20740;-86
2023/08/21 09:52:30;;;;;;;2.67;1.23;;;;;;;;;;4987684;28;20212;-84
2023/08/21 09:54:56;;;;;;;3.85;1.20;;;;;;;;;;5011745;28;20213;-85
2023/08/21 09:57:22;;;;;;;2.33;1.05;;;;;;;;;;4976020;28;20248;-84
2023/08/21 09:59:52;;;;;;;5.20;1.13;;;;;;;;;;4986580;28;20224;-88
2023/08/21 10:02:18;;;;;;;2.83;1.00;;;;;;;;;;4970215;28;20228;-82
2023/08/21 10:04:49;;;;;;;3.08;1.20;;;;;;;;;;4997957;28;20244;-85
2023/08/21 10:07:17;;;;;;;1.60;1.02;;;;;;;;;;4983179;28;20312;-84
2023/08/21 10:09:43;;;;;;;5.32;1.20;;;;;;;;;;5008313;28;20213;-83
2023/08/21 10:12:13;;;;;;;2.83;0.98;;;;;;;;;;4963475;28;20224;-85
2023/08/21 10:14:43;;;;;;;3.13;1.38;;;;;;;;;;4971594;28;20212;-83
2023/08/21 10:17:12;;;;;;;2.40;1.30;;;;;;;;;;4981974;28;21032;-84
2023/08/21 10:19:42;;;;;;;2.83;0.90;;;;;;;;;;4994573;28;20928;-81
2023/08/21 10:22:11;;;;;;;2.75;1.13;;;;;;;;;;4973867;28;20958;-84
2023/08/21 10:24:42;;;;;;;4.35;1.23;;;;;;;;;;4996481;28;20221;-82
2023/08/21 10:27:10;;;;;;;1.25;0.90;;;;;;;;;;4999758;28;20692;-83
2023/08/21 10:29:36;;;;;;;1.75;1.00;;;;;;;;;;5000675;28;20733;-83
2023/08/21 10:32:10;;;;;;;3.50;1.20;;;;;;;;;;5011940;28;20724;-83
2023/08/21 10:34:38;;;;;;;2.63;1.27;;;;;;;;;;5012146;28;20217;-82
2023/08/21 10:37:06;;;;;;;1.70;1.23;;;;;;;;;;4977627;28;20236;-81
2023/08/21 10:39:35;;;;;;;1.83;1.20;;;;;;;;;;4972165;28;20685;-81
2023/08/21 10:42:01;;;;;;;4.80;1.27;;;;;;;;;;5018972;28;20312;-80
2023/08/21 10:44:51;;;;;;;1.65;0.98;;;;;;;;;;5020444;28;20291;-83
2023/08/21 10:47:28;;;;;;;4.05;1.15;;;;;;;;;;5006569;28;20231;-82
2023/08/21 10:49:55;;;;;;;2.95;1.30;;;;;;;;;;5001616;28;20229;-82
2023/08/21 10:52:37;;;;;;;1.38;0.95;;;;;;;;;;5020982;28;20216;-84
2023/08/21 10:55:06;;;;;;;2.97;1.30;;;;;;;;;;5028179;28;20217;-83
2023/08/21 10:57:37;;;;;;;1.70;1.10;;;;;;;;;;5022761;28;20227;-83
2023/08/21 11:00:09;;;;;;;3.80;1.17;;;;;;;;;;4984328;28;20289;-85
2023/08/21 11:02:38;;;;;;;1.60;0.80;;;;;;;;;;5003429;28;20278;-83
2023/08/21 11:05:04;;;;;;;2.25;1.10;;;;;;;;;;5007477;28;20644;-82
2023/08/21 11:07:29;;;;;;;4.65;1.30;;;;;;;;;;4984387;28;20776;-83
2023/08/21 11:09:57;;;;;;;2.25;0.90;;;;;;;;;;5016661;28;20282;-83
2023/08/21 11:12:26;;;;;;;2.35;1.02;;;;;;;;;;4983657;28;20240;-84
2023/08/21 11:14:58;;;;;;;4.03;1.00;;;;;;;;;;4980354;28;20216;-82
2023/08/21 11:17:26;;;;;;;2.88;1.17;;;;;;;;;;5011453;28;20239;-81
2023/08/21 11:19:52;;;;;;;4.55;1.05;;;;;;;;;;5000374;28;20216;-85
2023/08/21 11:22:17;;;;;;;1.02;0.88;;;;;;;;;;5000437;28;20224;-85
2023/08/21 11:24:45;;;;;;;2.30;1.00;;;;;;;;;;5013048;28;20217;-83
2023/08/21 11:27:12;;;;;;;1.75;0.90;;;;;;;;;;5006254;28;20388;-84
2023/08/21 11:29:39;;;;;;;3.03;1.02;;;;;;;;;;4998254;28;20229;-81
2023/08/21 11:32:08;;;;;;;1.85;1.00;;;;;;;;;;4981910;28;20224;-82
2023/08/21 11:34:34;;;;;;;2.03;1.00;;;;;;;;;;4998362;28;20223;-84
2023/08/21 11:37:02;;;;;;;1.33;1.00;;;;;;;;;;5001690;28;20247;-84
2023/08/21 11:39:41;;;;;;;2.00;0.80;;;;;;;;;;5004057;28;20948;-85
2023/08/21 11:42:13;;;;;;;5.25;1.38;;;;;;;;;;4991926;28;20224;-84
2023/08/21 11:45:00;;;;;;;3.30;0.98;;;;;;;;;;4986074;28;20368;-85
2023/08/21 11:47:32;;;;;;;1.48;0.90;;;;;;;;;;5014240;28;20252;-83
2023/08/21 11:50:05;;;;;;;2.30;1.17;;;;;;;;;;5003330;28;20228;-85
2023/08/21 11:52:31;;;;;;;2.30;1.13;;;;;;;;;;4975984;28;21003;-84
2023/08/21 11:54:59;;;;;;;2.28;1.17;;;;;;;;;;4998539;28;20216;-85
2023/08/21 11:57:30;;;;;;;0.98;0.70;;;;;;;;;;5006484;28;20212;-85
2023/08/21 11:59:57;;;;;;;1.35;0.80;;;;;;;;;;4978682;28;20225;-83
2023/08/21 12:02:26;;;;;;;3.40;1.05;;;;;;;;;;5006245;28;20237;-85
2023/08/21 12:05:22;;;;;;;3.03;0.90;;;;;;;;;;5007613;28;20232;-85
2023/08/21 12:07:52;;;;;;;1.77;1.10;;;;;;;;;;5014986;28;20254;-85
2023/08/21 12:10:25;;;;;;;1.52;0.98;;;;;;;;;;4994925;28;20285;-85
2023/08/21 12:12:50;;;;;;;1.55;1.10;;;;;;;;;;4995860;28;20216;-85
2023/08/21 12:15:17;;;;;;;2.90;0.90;;;;;;;;;;5017532;28;20283;-83
2023/08/21 12:17:43;;;;;;;5.32;0.90;;;;;;;;;;5011665;28;20219;-83
2023/08/21 12:20:10;;;;;;;1.92;1.00;;;;;;;;;;5015823;28;20667;-83
2023/08/21 12:22:39;;;;;;;2.55;1.33;;;;;;;;;;4993385;28;20264;-81
2023/08/21 12:25:09;;;;;;;1.48;1.02;;;;;;;;;;4992494;28;20220;-84
2023/08/21 12:27:38;;;;;;;2.05;1.20;;;;;;;;;;4987601;28;20224;-84
2023/08/21 12:30:05;;;;;;;3.00;1.05;;;;;;;;;;4978473;28;20238;-81
2023/08/21 12:32:31;;;;;;;1.33;1.00;;;;;;;;;;4980830;28;20259;-84
2023/08/21 12:34:57;;;;;;;1.80;0.98;;;;;;;;;;4991417;28;20551;-82
2023/08/21 12:37:23;;;;;;;3.20;1.23;;;;;;;;;;4976236;28;20217;-82
2023/08/21 12:39:53;;;;;;;2.30;1.00;;;;;;;;;;5006857;28;20295;-84
2023/08/21 12:42:21;;;;;;;1.85;0.90;;;;;;;;;;4975947;28;20242;-85
2023/08/21 12:44:47;;;;;;;3.90;0.93;;;;;;;;;;4977675;28;20224;-83
2023/08/21 12:47:15;;;;;;;1.08;0.80;;;;;;;;;;5002848;28;20231;-85
2023/08/21 12:49:42;;;;;;;3.08;1.05;;;;;;;;;;4977766;28;20233;-83
2023/08/21 12:52:08;;;;;;;1.77;0.98;;;;;;;;;;5025653;28;20226;-83
2023/08/21 12:54:38;;;;;;;1.75;0.90;;;;;;;;;;5002935;28;20647;-84
2023/08/21 12:57:09;;;;;;;1.60;1.10;;;;;;;;;;4980941;28;20223;-84
2023/08/21 12:59:36;;;;;;;1.52;1.00;;;;;;;;;;5012739;28;20220;-80
2023/08/21 13:02:03;;;;;;;1.98;1.13;;;;;;;;;;4970015;28;20217;-84
2023/08/21 13:04:29;;;;;;;2.40;1.02;;;;;;;;;;4983156;28;20310;-84
2023/08/21 13:06:57;;;;;;;1.98;1.10;;;;;;;;;;4995780;28;20256;-83
2023/08/21 13:09:26;;;;;;;1.38;0.90;;;;;;;;;;4999023;28;20236;-82
2023/08/21 13:11:57;;;;;;;1.50;0.90;;;;;;;;;;4976771;28;20623;-84
2023/08/21 13:14:25;;;;;;;1.50;1.00;;;;;;;;;;4983783;28;20260;-82
2023/08/21 13:17:01;;;;;;;1.15;0.98;;;;;;;;;;4975257;28;20223;-86
2023/08/21 13:19:31;;;;;;;2.00;1.20;;;;;;;;;;4980641;28;20229;-84
2023/08/21 13:21:59;;;;;;;1.77;1.02;;;;;;;;;;4970015;28;20212;-82
2023/08/21 13:24:28;;;;;;;1.35;0.85;;;;;;;;;;5001450;28;20227;-84
2023/08/21 13:26:53;;;;;;;1.85;1.08;;;;;;;;;;4964065;28;20229;-83
2023/08/21 13:29:19;;;;;;;1.52;0.90;;;;;;;;;;4997874;28;20221;-83
2023/08/21 13:31:50;;;;;;;1.42;0.95;;;;;;;;;;4992145;28;20971;-82
2023/08/21 13:34:15;;;;;;;1.50;0.93;;;;;;;;;;4993453;28;20626;-84
2023/08/21 13:36:43;;;;;;;2.80;1.00;;;;;;;;;;4981721;28;20216;-83
2023/08/21 13:39:15;;;;;;;1.33;0.90;;;;;;;;;;5004612;28;20276;-83
2023/08/21 13:41:44;;;;;;;1.10;0.90;;;;;;;;;;4982182;28;20216;-85
2023/08/21 13:44:10;;;;;;;1.70;1.05;;;;;;;;;;4996804;28;20463;-85
2023/08/21 13:46:35;;;;;;;1.42;1.10;;;;;;;;;;5004652;28;20243;-85
2023/08/21 13:49:03;;;;;;;1.00;0.90;;;;;;;;;;5005060;28;20270;-84
2023/08/21 13:51:31;;;;;;;0.73;0.70;;;;;;;;;;4999182;28;20219;-86
2023/08/21 13:53:57;;;;;;;2.90;0.88;;;;;;;;;;5002553;28;20232;-83
2023/08/21 13:56:25;;;;;;;1.17;1.05;;;;;;;;;;4993391;28;20693;-85
2023/08/21 13:58:51;;;;;;;2.95;0.95;;;;;;;;;;5006239;28;20239;-83
2023/08/21 14:01:19;;;;;;;1.65;1.10;;;;;;;;;;5022845;28;20228;-84
2023/08/21 14:03:46;;;;;;;1.52;0.88;;;;;;;;;;5018762;28;20228;-85
2023/08/21 14:06:18;;;;;;;1.67;0.90;;;;;;;;;;5018797;28;20285;-84
2023/08/21 14:08:45;;;;;;;3.35;1.35;;;;;;;;;;4990974;28;20269;-83
2023/08/21 14:11:11;;;;;;;0.90;0.80;;;;;;;;;;4996624;28;20212;-82
2023/08/21 14:13:37;;;;;;;2.00;1.00;;;;;;;;;;4991672;28;20224;-84
2023/08/21 14:16:02;;;;;;;2.25;1.15;;;;;;;;;;5015582;28;20216;-86
2023/08/21 14:18:30;;;;;;;3.05;0.90;;;;;;;;;;4986453;28;20224;-86
2023/08/21 14:21:01;;;;;;;3.22;1.23;;;;;;;;;;4992962;28;20382;-84
2023/08/21 14:23:29;;;;;;;2.42;1.10;;;;;;;;;;5001019;28;20259;-87
2023/08/21 14:25:57;;;;;;;1.70;1.00;;;;;;;;;;4966287;28;20221;-84
2023/08/21 14:28:30;;;;;;;1.48;0.93;;;;;;;;;;4995438;28;20220;-82
2023/08/21 14:31:00;;;;;;;2.10;1.00;;;;;;;;;;5017082;28;20243;-83
2023/08/21 14:33:28;;;;;;;1.40;0.95;;;;;;;;;;4986103;28;20224;-83
2023/08/21 14:35:53;;;;;;;3.08;1.25;;;;;;;;;;4995601;28;20215;-83
2023/08/21 14:38:19;;;;;;;3.50;1.10;;;;;;;;;;4997205;28;20212;-82
2023/08/21 14:40:44;;;;;;;2.78;1.02;;;;;;;;;;5010015;28;20205;-82
2023/08/21 14:43:17;;;;;;;2.45;1.20;;;;;;;;;;4995372;28;20236;-82
2023/08/21 14:45:45;;;;;;;3.03;1.15;;;;;;;;;;4978481;28;20216;-84
2023/08/21 14:48:10;;;;;;;3.67;1.10;;;;;;;;;;5000300;28;20213;-83
2023/08/21 14:50:36;;;;;;;1.35;1.02;;;;;;;;;;4998875;28;20227;-82
2023/08/21 14:53:02;;;;;;;4.57;1.23;;;;;;;;;;5016123;28;20226;-83
2023/08/21 14:55:27;;;;;;;3.95;1.27;;;;;;;;;;5015845;28;20224;-83
2023/08/21 14:57:53;;;;;;;2.30;1.00;;;;;;;;;;4974210;28;20544;-83
2023/08/21 15:00:21;;;;;;;2.92;0.95;;;;;;;;;;4979676;28;20217;-84
2023/08/21 15:02:50;;;;;;;1.60;1.00;;;;;;;;;;4969007;28;20508;-83
2023/08/21 15:05:17;;;;;;;2.17;0.77;;;;;;;;;;4987257;28;20592;-83
2023/08/21 15:07:56;;;;;;;4.60;1.58;;;;;;;;;;4982167;28;20232;-82
2023/08/21 15:10:27;;;;;;;1.95;1.02;;;;;;;;;;5001218;28;20231;-82
2023/08/21 15:12:55;;;;;;;2.70;1.20;;;;;;;;;;5011998;28;20223;-82
2023/08/21 15:15:21;;;;;;;3.22;1.05;;;;;;;;;;5015173;28;20251;-83
2023/08/21 15:17:47;;;;;;;1.23;0.93;;;;;;;;;;4998025;28;20294;-83
2023/08/21 15:20:15;;;;;;;1.00;0.90;;;;;;;;;;4995525;28;20236;-84
2023/08/21 15:22:42;;;;;;;5.35;1.00;;;;;;;;;;4964153;28;20229;-84
2023/08/21 15:25:09;;;;;;;3.28;1.08;;;;;;;;;;4997114;28;20208;-83
2023/08/21 15:27:35;;;;;;;3.90;1.13;;;;;;;;;;4976257;28;20232;-83
2023/08/21 15:30:00;;;;;;;2.35;0.90;;;;;;;;;;4961007;28;20224;-82
2023/08/21 15:32:32;;;;;;;2.35;1.27;;;;;;;;;;4990514;28;20225;-82